Estación Meteorológica Peña el Pijo (Robertgarden) [ 09/23/17 05:47:01 CEST ]

Fecha Hora Presion(HPa) Temp (°C) Humedad % Rocio (°C) Viento ( m/s) Direccion Lluvia 1Hora(mm) Lluvia 24H(mm) LLuvia Total(mm)
2017-Jul-19 01:01:45 1011.000 18.9 59 10.7         1437.96
2017-Jul-19 02:01:42 1010.900 19.6 57 10.8         1437.96
2017-Jul-19 03:01:56 1010.400 19.1 59 10.9         1437.96
2017-Jul-19 04:02:02 1010.400 18.9 60 11.0         1437.96
2017-Jul-19 05:01:48 1010.000 19.3 58 10.8         1437.96
2017-Jul-19 06:01:49 1009.300 16.8 63 9.7         1437.96
2017-Jul-19 07:01:29 1009.500 14.9 66 8.6         1437.96
2017-Jul-19 08:01:45 1009.500 15.5 70 10.1         1437.96
2017-Jul-19 09:01:24 1009.700 20.6 61 12.8         1437.96
2017-Jul-19 10:01:55 1009.800 27.3 45 14.3         1437.96
2017-Jul-19 11:02:02 1010.000 30.9 31 11.8         1437.96
2017-Jul-19 12:01:37 1009.700 34.6 26 12.1         1437.96
2017-Jul-19 13:01:52 1009.300 35.4 26 12.8         1437.96
2017-Jul-19 14:02:05 1009.000 33.6 27 11.8         1437.96
2017-Jul-19 15:01:54 1008.900 36.4 21 10.5         1437.96
2017-Jul-19 16:01:59 1008.300 37.3 14 4.6         1437.96
2017-Jul-19 17:01:51 1008.200 36.8 15 5.2         1437.96
2017-Jul-19 18:02:01 1008.100 35.6 18 7.2         1437.96
2017-Jul-19 19:01:45 1008.100 34.4 20 8.2 0.7 NNW     1437.96
2017-Jul-19 20:01:51 1008.400 32.0 23 8.1         1437.96
2017-Jul-19 21:01:57 1008.700 28.2 27 7.2         1437.96
2017-Jul-19 22:01:46 1009.500 25.4 32 7.5         1437.96
2017-Jul-19 23:01:48 1010.000 23.1 37 7.5         1437.96

Temperatura Máxima:37°    Temperatura Mínima:14°
Presión Máxima:1011.000 Hpa    Presión Mínima:1008.100 Hpa


Volver